Grantsboro, North Carolina
Current Conditions -  °F | °C
As of 10:54 PM on Tuesday 25 Nov 2014 (Local Time) from KEWN Reporting Station
Light Rain Light Rain  
Wind Chill: 61°   Ceiling: 400
Heat Index: 61°   Visibility: 5mi
Dew Point: 58°   Wind: 7mph
Humidity: 90%   Direction: 70°ENE
Pressure: 30.05"   Gusts: NA
Location:  35.14°N, 76.84°W
Report Text: KEWN 260354Z AUTO 07006KT 5SM -RA BR OVC004 16/14 A3005 RMK AO2 SLP176 P0006 T01610144
Loading
Personal Weather Stations






























Interactive Weather Map New forecast layout! Learn more

10-Day Weather Forecast

Advertisements
Track Severe Weather on mobile